Decoded Metar for NWWW (NOUMEA in NEW CALEDONIA) (IATA:NOU) | Meteo·Mobile Aviation Weather
aviador You're here:

NWWW Decoded Metar

NOUMEA in NEW CALEDONIA
Report Time2018-11-21 07:30:00
UTC Time2018-11-21 08:02:47
Flight Rules vfr VFR
Wind140° at 06 kt
W.Decomp.*RWY 11: 5.7 kt HW 1.9 kt RCW
W.Rank140° ranks 2
Current wind is below 140° avg. (9.6)
Visibility9999 m
Phenomena:Shower Rain
Clouds:Broken 010 Hf
Broken 037 Hf
Broken 044 Hf
Overcast 050 Hf
Expected CloudBase > 2,400 ft AGL from Temp-Dew spread
Ceiling3,700 ft
Temp24°C (ISA +9)
Dew Point18°C (69% RH)
QNH1013 hPa
Density Alt1,381 ft
Elevation52 ft
Report Wrong Elevation
Raw Report
NWWW 210730Z AUTO 14006KT 9999 BKN037 BKN044 OVC050 24/18 Q1013
TEMPO SHRA BKN010 FEW020TCU=

Extra information for NWWW:More info

Metar Taf Metar & Taf Last 4 Metars F.Rules Stats Wind Profile Meteogram Temp Stats Airport Information Weather charts Add Link Nearby VenuesMetar ALERT Operation Metar Decoded Social comments